BFSO2: BUFFALO

Data processed at Sat Apr 22 2017 22:43


All information presented herein is the property of the government of the United States of America and may be revised or deleted at any time without prior notice.
Dissemination of this information without the expressed written consent of the Public Affairs Office, Tulsa District U.S. Army Corps of Engineers is strictly prohibited.
These data are gathered electronically and, as presented, have not undergone any form of quality control. These data are not guaranteed to be valid or correct.
Go to home page.
Go to station list.
Go to station map.


Previous Day
Next Day
Current Day


    
SHEF ID:       BFFO2     Cimarron River near Buffalo, OK
STATION TYPE:  

               PRECIP     STAGE  RIV-FLOW  BAT-LOAD
                   in        ft       cfs      volt
              Ccp-Rev   Ccp-Rev   Ccp-Rev   Ccp-Rev
(US/Central)
04/22 00:00      0.00      4.62       142     12.77
04/22 01:00      0.00      4.61       139     12.71
04/22 02:00      0.00      4.58       132     12.71
04/22 03:00      0.00      4.56       129     12.65
04/22 04:00      0.00      4.55       128     12.65
04/22 05:00      0.00      4.54       126     12.60
04/22 06:00      0.00      4.53       124     12.60
04/22 07:00      0.00      4.52       121     12.54
04/22 08:00      0.00      4.51       119     12.60
04/22 09:00      0.00      4.51       119     13.42
04/22 10:00      0.00      4.50       117     14.00
04/22 11:00      0.00      4.51       119     13.71
04/22 12:00      0.00      4.50       117     14.41
04/22 13:00      0.00      4.50       117     13.71
04/22 14:00      0.00      4.49       115     14.30
04/22 15:00      0.00      4.51       119     13.71
04/22 16:00      0.00      4.51       119     14.18
04/22 17:00      0.00      4.50       117     14.35
04/22 18:00      0.00      4.49       115     13.42
04/22 19:00      0.00      4.49       115     13.36
04/22 20:00      0.00      4.48       113     13.30
04/22 21:00      ----      ----      ----      ----
04/22 22:00      ----      ----      ----      ----
04/22 23:00      ----      ----      ----      ----